aviador You're here:

KVTI Decoded Metar

VINTON in IA, USA
Report Time2017-11-23 03:15:00
UTC Time2017-11-23 03:27:14
Flight Rules vfr VFR
Wind170° at 07 kt
W.Decomp.*RWY 16: 6.9 kt HW 1.1 kt RCW
RWY 09: 1.3 kt HW 6.9 kt RCW
W.Rank170° ranks 1
Current wind is below 170° avg. (8.0)
Visibility9999 m
Phenomena:N/A
Clouds:N/A
Expected CloudBase > 4,000 ft AGL from Temp-Dew spread
CeilingNone
Temp02°C (ISA -11)
Dew Point-8°C (48% RH)
AAT-3.4°C
QNH1019 hPa
Density Alt-692 ft
Elevation837 ft
Report Wrong Elevation
Raw Report
METAR KVTI 230315Z AUTO 17007KT 10SM CLR 02/M08 A3010 RMK AO2 T00201081=

Extra information for KVTI:More info

Metar Taf Metar & Taf Last 4 Metars F.Rules Stats Wind Profile Meteogram Temp Stats Airport Information Weather charts Add Link Nearby VenuesMetar ALERT Operation Metar Decoded Social comments

AIRNAV info for KVTI